METAR Data
IDs: Format: Raw Decoded Include TAF

Data at: 0306 UTC 10 Dec 2022

METAR for:RPLC (Angeles City/Clark I, BA, PH)
Text:RPLC 100300Z 36006KT 8000 SCT020 BKN100 29/24 Q1007 NOSIG RMK A2974
Temperature: 29.0°C ( 84°F)
Dewpoint: 24.0°C ( 75°F) [RH = 74%]
Pressure (altimeter):29.73 inches Hg (1007.0 mb)
Winds:from the N (360 degrees) at 7 MPH (6 knots; 3.1 m/s)
Visibility: 5 sm ( 8 km)
Ceiling:10000 feet AGL
Clouds: scattered clouds at 2000 feet AGL, broken clouds at 10000 feet AGL
Text:RPLC 100200Z 36006KT 8000 SCT020 BKN100 28/24 Q1008 NOSIG RMK A2977
Temperature: 28.0°C ( 82°F)
Dewpoint: 24.0°C ( 75°F) [RH = 79%]
Pressure (altimeter):29.76 inches Hg (1008.0 mb)
Winds:from the N (360 degrees) at 7 MPH (6 knots; 3.1 m/s)
Visibility: 5 sm ( 8 km)
Ceiling:10000 feet AGL
Clouds: scattered clouds at 2000 feet AGL, broken clouds at 10000 feet AGL
Text:RPLC 100100Z 36004KT 8000 SCT020 OVC100 26/23 Q1008 NOSIG RMK A2977
Temperature: 26.0°C ( 79°F)
Dewpoint: 23.0°C ( 73°F) [RH = 84%]
Pressure (altimeter):29.76 inches Hg (1008.0 mb)
Winds:from the N (360 degrees) at 5 MPH (4 knots; 2.1 m/s)
Visibility: 5 sm ( 8 km)
Ceiling:10000 feet AGL
Clouds: scattered clouds at 2000 feet AGL, overcast cloud deck at 10000 feet AGL
Text:RPLC 100000Z 34002KT 7000 SCT020 OVC100 25/22 Q1007 NOSIG RMK A2974
Temperature: 25.0°C ( 77°F)
Dewpoint: 22.0°C ( 72°F) [RH = 83%]
Pressure (altimeter):29.73 inches Hg (1007.0 mb)
Winds:from the NNW (340 degrees) at 2 MPH (2 knots; 1.0 m/s)
Visibility: 4 sm ( 7 km)
Ceiling:10000 feet AGL
Clouds: scattered clouds at 2000 feet AGL, overcast cloud deck at 10000 feet AGL
Text:RPLC 092300Z 36002KT 5000 HZ SCT020 OVC100 24/22 Q1007 NOSIG RMK A2974
Temperature: 24.0°C ( 75°F)
Dewpoint: 22.0°C ( 72°F) [RH = 89%]
Pressure (altimeter):29.73 inches Hg (1007.0 mb)
Winds:from the N (360 degrees) at 2 MPH (2 knots; 1.0 m/s)
Visibility: 3 sm ( 5 km)
Ceiling:10000 feet AGL
Clouds: scattered clouds at 2000 feet AGL, overcast cloud deck at 10000 feet AGL
Weather:HZ (haze)
Text:RPLC 092200Z 36002KT 6000 SCT020 BKN100 24/22 Q1007 NOSIG RMK A2974
Temperature: 24.0°C ( 75°F)
Dewpoint: 22.0°C ( 72°F) [RH = 89%]
Pressure (altimeter):29.73 inches Hg (1007.0 mb)
Winds:from the N (360 degrees) at 2 MPH (2 knots; 1.0 m/s)
Visibility: 4 sm ( 6 km)
Ceiling:10000 feet AGL
Clouds: scattered clouds at 2000 feet AGL, broken clouds at 10000 feet AGL
Text:RPLC 092100Z 36002KT 8000 SCT020 BKN100 24/22 Q1006 NOSIG RMK A2971
Temperature: 24.0°C ( 75°F)
Dewpoint: 22.0°C ( 72°F) [RH = 89%]
Pressure (altimeter):29.70 inches Hg (1006.0 mb)
Winds:from the N (360 degrees) at 2 MPH (2 knots; 1.0 m/s)
Visibility: 5 sm ( 8 km)
Ceiling:10000 feet AGL
Clouds: scattered clouds at 2000 feet AGL, broken clouds at 10000 feet AGL
Text:RPLC 092000Z 36004KT 8000 SCT020 BKN100 24/22 Q1006 NOSIG RMK A2971
Temperature: 24.0°C ( 75°F)
Dewpoint: 22.0°C ( 72°F) [RH = 89%]
Pressure (altimeter):29.70 inches Hg (1006.0 mb)
Winds:from the N (360 degrees) at 5 MPH (4 knots; 2.1 m/s)
Visibility: 5 sm ( 8 km)
Ceiling:10000 feet AGL
Clouds: scattered clouds at 2000 feet AGL, broken clouds at 10000 feet AGL
Text:RPLC 091900Z 36004KT 8000 SCT020 BKN100 24/23 Q1006 NOSIG RMK A2971
Temperature: 24.0°C ( 75°F)
Dewpoint: 23.0°C ( 73°F) [RH = 94%]
Pressure (altimeter):29.70 inches Hg (1006.0 mb)
Winds:from the N (360 degrees) at 5 MPH (4 knots; 2.1 m/s)
Visibility: 5 sm ( 8 km)
Ceiling:10000 feet AGL
Clouds: scattered clouds at 2000 feet AGL, broken clouds at 10000 feet AGL
Text:RPLC 091800Z 36002KT 8000 SCT020 BKN100 24/23 Q1006 NOSIG RMK A2971
Temperature: 24.0°C ( 75°F)
Dewpoint: 23.0°C ( 73°F) [RH = 94%]
Pressure (altimeter):29.70 inches Hg (1006.0 mb)
Winds:from the N (360 degrees) at 2 MPH (2 knots; 1.0 m/s)
Visibility: 5 sm ( 8 km)
Ceiling:10000 feet AGL
Clouds: scattered clouds at 2000 feet AGL, broken clouds at 10000 feet AGL
Text:RPLC 091700Z 36002KT 8000 SCT020 BKN100 25/23 Q1007 NOSIG RMK A2974
Temperature: 25.0°C ( 77°F)
Dewpoint: 23.0°C ( 73°F) [RH = 89%]
Pressure (altimeter):29.73 inches Hg (1007.0 mb)
Winds:from the N (360 degrees) at 2 MPH (2 knots; 1.0 m/s)
Visibility: 5 sm ( 8 km)
Ceiling:10000 feet AGL
Clouds: scattered clouds at 2000 feet AGL, broken clouds at 10000 feet AGL
Text:RPLC 091600Z 36002KT 8000 SCT020 BKN300 25/23 Q1007 NOSIG RMK A2974
Temperature: 25.0°C ( 77°F)
Dewpoint: 23.0°C ( 73°F) [RH = 89%]
Pressure (altimeter):29.73 inches Hg (1007.0 mb)
Winds:from the N (360 degrees) at 2 MPH (2 knots; 1.0 m/s)
Visibility: 5 sm ( 8 km)
Ceiling:30000 feet AGL
Clouds: scattered clouds at 2000 feet AGL, broken clouds at 30000 feet AGL
Text:RPLC 091500Z 30003KT 7000 SCT020 BKN300 26/23 Q1008 RESHRA NOSIGRMK A2977
Temperature: 26.0°C ( 79°F)
Dewpoint: 23.0°C ( 73°F) [RH = 84%]
Pressure (altimeter):29.76 inches Hg (1008.0 mb)
Winds:from the WNW (300 degrees) at 3 MPH (3 knots; 1.5 m/s)
Visibility: 4 sm ( 7 km)
Ceiling:30000 feet AGL
Clouds: scattered clouds at 2000 feet AGL, broken clouds at 30000 feet AGL
Weather:GR (hail)
Text:RPLC 091400Z 36005KT 5000 -SHRA FEW015CB SCT020 OVC100 25/24 Q1008 RETS RMK A2977 CB W
Temperature: 25.0°C ( 77°F)
Dewpoint: 24.0°C ( 75°F) [RH = 94%]
Pressure (altimeter):29.76 inches Hg (1008.0 mb)
Winds:from the N (360 degrees) at 6 MPH (5 knots; 2.6 m/s)
Visibility: 3 sm ( 5 km)
Ceiling:10000 feet AGL
Clouds: few clouds at 1500 feet AGL, scattered clouds at 2000 feet AGL, overcast cloud deck at 10000 feet AGL
Weather:-SHRA (light rain showers)
Text:RPLC 091326Z 34006KT 5000 -TSRA FEW015CB SCT020 BKN100 26/24 Q1008 RMK A2977 CB NW
Temperature: 26.0°C ( 79°F)
Dewpoint: 24.0°C ( 75°F) [RH = 89%]
Pressure (altimeter):29.76 inches Hg (1008.0 mb)
Winds:from the NNW (340 degrees) at 7 MPH (6 knots; 3.1 m/s)
Visibility: 3 sm ( 5 km)
Ceiling:10000 feet AGL
Clouds: few clouds at 1500 feet AGL, scattered clouds at 2000 feet AGL, broken clouds at 10000 feet AGL
Weather:-TSRA (light rain associated with thunderstorm(s))
Text:RPLC 091300Z 01004KT 7000 TS FEW015CB SCT020 BKN100 26/24 Q1008 RMK A2977 CB NW
Temperature: 26.0°C ( 79°F)
Dewpoint: 24.0°C ( 75°F) [RH = 89%]
Pressure (altimeter):29.76 inches Hg (1008.0 mb)
Winds:from the N (10 degrees) at 5 MPH (4 knots; 2.1 m/s)
Visibility: 4 sm ( 7 km)
Ceiling:10000 feet AGL
Clouds: few clouds at 1500 feet AGL, scattered clouds at 2000 feet AGL, broken clouds at 10000 feet AGL
Weather:TS (thunderstorm)
Text:RPLC 091200Z 36004KT 8000 SCT020 BKN100 27/23 Q1007 NOSIG MRK A2974
Temperature: 27.0°C ( 81°F)
Dewpoint: 23.0°C ( 73°F) [RH = 79%]
Pressure (altimeter):29.73 inches Hg (1007.0 mb)
Winds:from the N (360 degrees) at 5 MPH (4 knots; 2.1 m/s)
Visibility: 5 sm ( 8 km)
Ceiling:10000 feet AGL
Clouds: scattered clouds at 2000 feet AGL, broken clouds at 10000 feet AGL
Text:RPLC 091100Z 18006KT 8000 SCT020 BKN100 28/23 Q1007 NOSIG RMK A2974
Temperature: 28.0°C ( 82°F)
Dewpoint: 23.0°C ( 73°F) [RH = 74%]
Pressure (altimeter):29.73 inches Hg (1007.0 mb)
Winds:from the S (180 degrees) at 7 MPH (6 knots; 3.1 m/s)
Visibility: 5 sm ( 8 km)
Ceiling:10000 feet AGL
Clouds: scattered clouds at 2000 feet AGL, broken clouds at 10000 feet AGL
Text:RPLC 091000Z 09002KT 8000 SCT020 OVC100 29/23 Q1006 NOSIG RMK A2971
Temperature: 29.0°C ( 84°F)
Dewpoint: 23.0°C ( 73°F) [RH = 70%]
Pressure (altimeter):29.70 inches Hg (1006.0 mb)
Winds:from the E (90 degrees) at 2 MPH (2 knots; 1.0 m/s)
Visibility: 5 sm ( 8 km)
Ceiling:10000 feet AGL
Clouds: scattered clouds at 2000 feet AGL, overcast cloud deck at 10000 feet AGL
Text:RPLC 090900Z 34002KT 8000 SCT020 OVC100 30/23 Q1006 NOSIG RMK A2971
Temperature: 30.0°C ( 86°F)
Dewpoint: 23.0°C ( 73°F) [RH = 66%]
Pressure (altimeter):29.70 inches Hg (1006.0 mb)
Winds:from the NNW (340 degrees) at 2 MPH (2 knots; 1.0 m/s)
Visibility: 5 sm ( 8 km)
Ceiling:10000 feet AGL
Clouds: scattered clouds at 2000 feet AGL, overcast cloud deck at 10000 feet AGL
Text:RPLC 090800Z 36004KT 9000 SCT020 OVC100 30/23 Q1005 NOSIG RMK A2968
Temperature: 30.0°C ( 86°F)
Dewpoint: 23.0°C ( 73°F) [RH = 66%]
Pressure (altimeter):29.68 inches Hg (1005.0 mb)
Winds:from the N (360 degrees) at 5 MPH (4 knots; 2.1 m/s)
Visibility: 6 sm ( 9 km)
Ceiling:10000 feet AGL
Clouds: scattered clouds at 2000 feet AGL, overcast cloud deck at 10000 feet AGL
Text:RPLC 090700Z 34002KT 9999 SCT020 OVC100 30/23 Q1005 NOSIG RMK A2968
Temperature: 30.0°C ( 86°F)
Dewpoint: 23.0°C ( 73°F) [RH = 66%]
Pressure (altimeter):29.68 inches Hg (1005.0 mb)
Winds:from the NNW (340 degrees) at 2 MPH (2 knots; 1.0 m/s)
Visibility:6 or more sm (10+ km)
Ceiling:10000 feet AGL
Clouds: scattered clouds at 2000 feet AGL, overcast cloud deck at 10000 feet AGL
Text:RPLC 090600Z 04004KT 9999 SCT020 OVC100 30/23 Q1006 NOSIG RMK A2971
Temperature: 30.0°C ( 86°F)
Dewpoint: 23.0°C ( 73°F) [RH = 66%]
Pressure (altimeter):29.70 inches Hg (1006.0 mb)
Winds:from the NE (40 degrees) at 5 MPH (4 knots; 2.1 m/s)
Visibility:6 or more sm (10+ km)
Ceiling:10000 feet AGL
Clouds: scattered clouds at 2000 feet AGL, overcast cloud deck at 10000 feet AGL
Text:RPLC 090500Z 04004KT 9999 SCT020 BKN100 30/22 Q1007 NOSIG RMK A2974
Temperature: 30.0°C ( 86°F)
Dewpoint: 22.0°C ( 72°F) [RH = 62%]
Pressure (altimeter):29.73 inches Hg (1007.0 mb)
Winds:from the NE (40 degrees) at 5 MPH (4 knots; 2.1 m/s)
Visibility:6 or more sm (10+ km)
Ceiling:10000 feet AGL
Clouds: scattered clouds at 2000 feet AGL, broken clouds at 10000 feet AGL
Text:RPLC 090400Z 36004KT 9999 SCT020 BKN100 30/23 Q1008 NOSIG RMK A2977
Temperature: 30.0°C ( 86°F)
Dewpoint: 23.0°C ( 73°F) [RH = 66%]
Pressure (altimeter):29.76 inches Hg (1008.0 mb)
Winds:from the N (360 degrees) at 5 MPH (4 knots; 2.1 m/s)
Visibility:6 or more sm (10+ km)
Ceiling:10000 feet AGL
Clouds: scattered clouds at 2000 feet AGL, broken clouds at 10000 feet AGL